sensor_id;sensor_type;location;lat;lon;timestamp;P1;durP1;ratioP1;P2;durP2;ratioP2
63201;SDS011;49296;48.188;11.566;2023-04-25T00:01:37;5.07;;;2.90;;
63201;SDS011;49296;48.188;11.566;2023-04-25T00:04:04;5.88;;;3.00;;
63201;SDS011;49296;48.188;11.566;2023-04-25T00:06:32;5.30;;;2.80;;
63201;SDS011;49296;48.188;11.566;2023-04-25T00:09:01;6.22;;;2.65;;
63201;SDS011;49296;48.188;11.566;2023-04-25T00:11:28;5.75;;;3.03;;
63201;SDS011;49296;48.188;11.566;2023-04-25T00:13:56;4.97;;;2.95;;
63201;SDS011;49296;48.188;11.566;2023-04-25T00:16:24;6.97;;;3.10;;
63201;SDS011;49296;48.188;11.566;2023-04-25T00:18:54;5.65;;;2.65;;
63201;SDS011;49296;48.188;11.566;2023-04-25T00:21:21;4.97;;;2.83;;
63201;SDS011;49296;48.188;11.566;2023-04-25T00:23:51;3.63;;;2.30;;
63201;SDS011;49296;48.188;11.566;2023-04-25T00:26:18;4.38;;;2.70;;
63201;SDS011;49296;48.188;11.566;2023-04-25T00:28:46;5.38;;;2.72;;
63201;SDS011;49296;48.188;11.566;2023-04-25T00:31:13;4.43;;;2.50;;
63201;SDS011;49296;48.188;11.566;2023-04-25T00:33:40;6.40;;;2.88;;
63201;SDS011;49296;48.188;11.566;2023-04-25T00:36:07;5.50;;;2.33;;
63201;SDS011;49296;48.188;11.566;2023-04-25T00:38:34;5.18;;;2.55;;
63201;SDS011;49296;48.188;11.566;2023-04-25T00:41:02;5.07;;;2.58;;
63201;SDS011;49296;48.188;11.566;2023-04-25T00:43:29;4.32;;;2.40;;
63201;SDS011;49296;48.188;11.566;2023-04-25T00:45:59;4.55;;;2.67;;
63201;SDS011;49296;48.188;11.566;2023-04-25T00:48:26;4.22;;;2.45;;
63201;SDS011;49296;48.188;11.566;2023-04-25T00:50:53;4.35;;;2.60;;
63201;SDS011;49296;48.188;11.566;2023-04-25T00:53:21;5.18;;;2.70;;
63201;SDS011;49296;48.188;11.566;2023-04-25T00:55:49;4.22;;;2.50;;
63201;SDS011;49296;48.188;11.566;2023-04-25T00:58:18;5.55;;;2.78;;
63201;SDS011;49296;48.188;11.566;2023-04-25T01:00:47;5.05;;;2.53;;
63201;SDS011;49296;48.188;11.566;2023-04-25T01:03:15;4.32;;;2.67;;
63201;SDS011;49296;48.188;11.566;2023-04-25T01:05:44;8.38;;;3.05;;
63201;SDS011;49296;48.188;11.566;2023-04-25T01:08:12;5.80;;;2.97;;
63201;SDS011;49296;48.188;11.566;2023-04-25T01:10:39;5.68;;;2.90;;
63201;SDS011;49296;48.188;11.566;2023-04-25T01:13:05;6.00;;;3.60;;
63201;SDS011;49296;48.188;11.566;2023-04-25T01:15:34;6.47;;;3.88;;
63201;SDS011;49296;48.188;11.566;2023-04-25T01:18:01;6.55;;;4.22;;
63201;SDS011;49296;48.188;11.566;2023-04-25T01:20:29;7.18;;;4.40;;
63201;SDS011;49296;48.188;11.566;2023-04-25T01:23:00;7.53;;;4.22;;
63201;SDS011;49296;48.188;11.566;2023-04-25T01:25:28;6.40;;;4.15;;
63201;SDS011;49296;48.188;11.566;2023-04-25T01:27:56;8.50;;;4.88;;
63201;SDS011;49296;48.188;11.566;2023-04-25T01:30:23;7.57;;;4.32;;
63201;SDS011;49296;48.188;11.566;2023-04-25T01:32:52;7.32;;;4.15;;
63201;SDS011;49296;48.188;11.566;2023-04-25T01:35:20;7.30;;;3.45;;
63201;SDS011;49296;48.188;11.566;2023-04-25T01:37:49;7.95;;;3.88;;
63201;SDS011;49296;48.188;11.566;2023-04-25T01:40:17;4.97;;;3.17;;
63201;SDS011;49296;48.188;11.566;2023-04-25T01:42:44;7.65;;;4.03;;
63201;SDS011;49296;48.188;11.566;2023-04-25T01:45:11;6.15;;;3.42;;
63201;SDS011;49296;48.188;11.566;2023-04-25T01:47:38;5.75;;;3.35;;
63201;SDS011;49296;48.188;11.566;2023-04-25T01:50:08;5.72;;;3.40;;
63201;SDS011;49296;48.188;11.566;2023-04-25T01:52:36;5.80;;;3.40;;
63201;SDS011;49296;48.188;11.566;2023-04-25T01:55:03;5.25;;;3.63;;
63201;SDS011;49296;48.188;11.566;2023-04-25T01:57:33;5.53;;;3.30;;
63201;SDS011;49296;48.188;11.566;2023-04-25T02:00:01;6.65;;;3.90;;
63201;SDS011;49296;48.188;11.566;2023-04-25T02:02:30;6.90;;;4.60;;
63201;SDS011;49296;48.188;11.566;2023-04-25T02:04:56;7.20;;;4.53;;
63201;SDS011;49296;48.188;11.566;2023-04-25T02:07:23;7.65;;;4.28;;
63201;SDS011;49296;48.188;11.566;2023-04-25T02:09:50;8.50;;;4.35;;
63201;SDS011;49296;48.188;11.566;2023-04-25T02:12:17;9.85;;;4.20;;
63201;SDS011;49296;48.188;11.566;2023-04-25T02:14:45;6.28;;;3.83;;
63201;SDS011;49296;48.188;11.566;2023-04-25T02:17:12;5.82;;;4.00;;
63201;SDS011;49296;48.188;11.566;2023-04-25T02:19:38;6.18;;;4.10;;
63201;SDS011;49296;48.188;11.566;2023-04-25T02:22:05;6.55;;;4.10;;
63201;SDS011;49296;48.188;11.566;2023-04-25T02:24:32;6.75;;;4.05;;
63201;SDS011;49296;48.188;11.566;2023-04-25T02:26:59;7.28;;;3.58;;
63201;SDS011;49296;48.188;11.566;2023-04-25T02:29:26;6.97;;;3.38;;
63201;SDS011;49296;48.188;11.566;2023-04-25T02:31:55;6.88;;;3.63;;
63201;SDS011;49296;48.188;11.566;2023-04-25T02:34:21;5.43;;;3.90;;
63201;SDS011;49296;48.188;11.566;2023-04-25T02:36:48;5.65;;;3.53;;
63201;SDS011;49296;48.188;11.566;2023-04-25T02:39:15;8.02;;;4.10;;
63201;SDS011;49296;48.188;11.566;2023-04-25T02:41:42;6.90;;;3.58;;
63201;SDS011;49296;48.188;11.566;2023-04-25T02:44:09;5.63;;;3.22;;
63201;SDS011;49296;48.188;11.566;2023-04-25T02:46:36;7.45;;;4.18;;
63201;SDS011;49296;48.188;11.566;2023-04-25T02:49:04;6.72;;;3.63;;
63201;SDS011;49296;48.188;11.566;2023-04-25T02:51:31;5.70;;;3.17;;
63201;SDS011;49296;48.188;11.566;2023-04-25T02:53:58;7.43;;;3.25;;
63201;SDS011;49296;48.188;11.566;2023-04-25T02:56:24;5.63;;;3.05;;
63201;SDS011;49296;48.188;11.566;2023-04-25T02:58:52;6.95;;;2.90;;
63201;SDS011;49296;48.188;11.566;2023-04-25T03:01:19;4.43;;;2.40;;
63201;SDS011;49296;48.188;11.566;2023-04-25T03:03:46;5.70;;;3.00;;
63201;SDS011;49296;48.188;11.566;2023-04-25T03:06:14;6.43;;;2.90;;
63201;SDS011;49296;48.188;11.566;2023-04-25T03:08:41;6.00;;;3.35;;
63201;SDS011;49296;48.188;11.566;2023-04-25T03:11:08;4.97;;;3.33;;
63201;SDS011;49296;48.188;11.566;2023-04-25T03:13:35;6.45;;;3.08;;
63201;SDS011;49296;48.188;11.566;2023-04-25T03:16:02;5.43;;;2.60;;
63201;SDS011;49296;48.188;11.566;2023-04-25T03:18:29;5.30;;;2.97;;
63201;SDS011;49296;48.188;11.566;2023-04-25T03:20:56;7.28;;;2.90;;
63201;SDS011;49296;48.188;11.566;2023-04-25T03:23:24;6.05;;;2.85;;
63201;SDS011;49296;48.188;11.566;2023-04-25T03:25:51;6.28;;;2.70;;
63201;SDS011;49296;48.188;11.566;2023-04-25T03:28:17;5.53;;;2.55;;
63201;SDS011;49296;48.188;11.566;2023-04-25T03:30:45;5.20;;;2.60;;
63201;SDS011;49296;48.188;11.566;2023-04-25T03:33:11;5.45;;;2.65;;
63201;SDS011;49296;48.188;11.566;2023-04-25T03:35:38;5.57;;;2.42;;
63201;SDS011;49296;48.188;11.566;2023-04-25T03:38:05;5.75;;;2.42;;
63201;SDS011;49296;48.188;11.566;2023-04-25T03:40:33;4.13;;;2.20;;
63201;SDS011;49296;48.188;11.566;2023-04-25T03:43:00;3.63;;;2.42;;
63201;SDS011;49296;48.188;11.566;2023-04-25T03:45:27;8.43;;;3.03;;
63201;SDS011;49296;48.188;11.566;2023-04-25T03:47:53;4.85;;;2.60;;
63201;SDS011;49296;48.188;11.566;2023-04-25T03:50:20;5.72;;;2.80;;
63201;SDS011;49296;48.188;11.566;2023-04-25T03:52:47;5.10;;;2.55;;
63201;SDS011;49296;48.188;11.566;2023-04-25T03:55:15;4.68;;;2.20;;
63201;SDS011;49296;48.188;11.566;2023-04-25T03:57:43;3.88;;;2.35;;
63201;SDS011;49296;48.188;11.566;2023-04-25T04:00:10;5.45;;;2.42;;
63201;SDS011;49296;48.188;11.566;2023-04-25T04:02:38;5.18;;;2.17;;
63201;SDS011;49296;48.188;11.566;2023-04-25T04:05:04;5.10;;;2.28;;
63201;SDS011;49296;48.188;11.566;2023-04-25T04:07:32;5.25;;;2.63;;
63201;SDS011;49296;48.188;11.566;2023-04-25T04:10:01;6.07;;;2.72;;
63201;SDS011;49296;48.188;11.566;2023-04-25T04:12:30;6.13;;;2.92;;
63201;SDS011;49296;48.188;11.566;2023-04-25T04:14:58;4.30;;;2.70;;
63201;SDS011;49296;48.188;11.566;2023-04-25T04:17:25;5.60;;;2.83;;
63201;SDS011;49296;48.188;11.566;2023-04-25T04:19:52;6.15;;;3.10;;
63201;SDS011;49296;48.188;11.566;2023-04-25T04:22:18;5.25;;;2.50;;
63201;SDS011;49296;48.188;11.566;2023-04-25T04:24:45;4.90;;;2.42;;
63201;SDS011;49296;48.188;11.566;2023-04-25T04:27:12;5.55;;;2.75;;
63201;SDS011;49296;48.188;11.566;2023-04-25T04:29:40;5.60;;;2.40;;
63201;SDS011;49296;48.188;11.566;2023-04-25T04:32:08;4.78;;;2.10;;
63201;SDS011;49296;48.188;11.566;2023-04-25T04:34:35;3.75;;;1.80;;
63201;SDS011;49296;48.188;11.566;2023-04-25T04:37:02;4.93;;;1.80;;
63201;SDS011;49296;48.188;11.566;2023-04-25T04:39:29;3.78;;;1.70;;
63201;SDS011;49296;48.188;11.566;2023-04-25T04:41:56;4.43;;;2.40;;
63201;SDS011;49296;48.188;11.566;2023-04-25T04:44:22;4.13;;;2.10;;
63201;SDS011;49296;48.188;11.566;2023-04-25T04:46:50;3.65;;;1.95;;
63201;SDS011;49296;48.188;11.566;2023-04-25T04:49:18;5.57;;;2.45;;
63201;SDS011;49296;48.188;11.566;2023-04-25T04:51:45;3.60;;;1.90;;
63201;SDS011;49296;48.188;11.566;2023-04-25T04:54:12;4.93;;;2.00;;
63201;SDS011;49296;48.188;11.566;2023-04-25T04:56:39;5.28;;;2.10;;
63201;SDS011;49296;48.188;11.566;2023-04-25T04:59:06;4.38;;;2.22;;
63201;SDS011;49296;48.188;11.566;2023-04-25T05:01:34;5.55;;;2.40;;
63201;SDS011;49296;48.188;11.566;2023-04-25T05:04:01;5.38;;;2.38;;
63201;SDS011;49296;48.188;11.566;2023-04-25T05:06:30;6.28;;;2.72;;
63201;SDS011;49296;48.188;11.566;2023-04-25T05:08:57;6.22;;;2.75;;
63201;SDS011;49296;48.188;11.566;2023-04-25T05:11:25;6.28;;;2.70;;
63201;SDS011;49296;48.188;11.566;2023-04-25T05:13:52;7.75;;;3.80;;
63201;SDS011;49296;48.188;11.566;2023-04-25T05:16:19;8.43;;;3.20;;
63201;SDS011;49296;48.188;11.566;2023-04-25T05:18:46;7.32;;;3.65;;
63201;SDS011;49296;48.188;11.566;2023-04-25T05:21:13;5.95;;;3.03;;
63201;SDS011;49296;48.188;11.566;2023-04-25T05:23:41;4.80;;;2.50;;
63201;SDS011;49296;48.188;11.566;2023-04-25T05:26:09;4.95;;;2.38;;
63201;SDS011;49296;48.188;11.566;2023-04-25T05:28:38;5.65;;;2.70;;
63201;SDS011;49296;48.188;11.566;2023-04-25T05:31:06;6.28;;;3.05;;
63201;SDS011;49296;48.188;11.566;2023-04-25T05:33:33;4.65;;;2.65;;
63201;SDS011;49296;48.188;11.566;2023-04-25T05:36:00;6.95;;;3.10;;
63201;SDS011;49296;48.188;11.566;2023-04-25T05:38:26;6.95;;;2.90;;
63201;SDS011;49296;48.188;11.566;2023-04-25T05:40:55;6.22;;;2.95;;
63201;SDS011;49296;48.188;11.566;2023-04-25T05:43:21;8.55;;;3.22;;
63201;SDS011;49296;48.188;11.566;2023-04-25T05:45:48;4.75;;;2.45;;
63201;SDS011;49296;48.188;11.566;2023-04-25T05:48:15;6.45;;;3.20;;
63201;SDS011;49296;48.188;11.566;2023-04-25T05:50:42;6.10;;;3.00;;
63201;SDS011;49296;48.188;11.566;2023-04-25T05:53:09;5.32;;;2.92;;
63201;SDS011;49296;48.188;11.566;2023-04-25T05:55:36;6.70;;;3.00;;
63201;SDS011;49296;48.188;11.566;2023-04-25T05:58:04;4.88;;;2.83;;
63201;SDS011;49296;48.188;11.566;2023-04-25T06:00:31;6.53;;;3.25;;
63201;SDS011;49296;48.188;11.566;2023-04-25T06:02:58;8.27;;;3.30;;
63201;SDS011;49296;48.188;11.566;2023-04-25T06:05:25;5.90;;;2.78;;
63201;SDS011;49296;48.188;11.566;2023-04-25T06:07:52;8.25;;;2.40;;
63201;SDS011;49296;48.188;11.566;2023-04-25T06:10:19;6.55;;;3.10;;
63201;SDS011;49296;48.188;11.566;2023-04-25T06:12:45;5.65;;;2.90;;
63201;SDS011;49296;48.188;11.566;2023-04-25T06:15:14;6.72;;;3.00;;
63201;SDS011;49296;48.188;11.566;2023-04-25T06:17:41;6.80;;;3.13;;
63201;SDS011;49296;48.188;11.566;2023-04-25T06:20:08;5.03;;;2.60;;
63201;SDS011;49296;48.188;11.566;2023-04-25T06:22:36;7.05;;;2.90;;
63201;SDS011;49296;48.188;11.566;2023-04-25T06:25:03;7.53;;;2.72;;
63201;SDS011;49296;48.188;11.566;2023-04-25T06:27:32;6.13;;;2.00;;
63201;SDS011;49296;48.188;11.566;2023-04-25T06:29:58;4.45;;;1.95;;
63201;SDS011;49296;48.188;11.566;2023-04-25T06:32:27;4.78;;;1.95;;
63201;SDS011;49296;48.188;11.566;2023-04-25T06:34:55;5.60;;;2.40;;
63201;SDS011;49296;48.188;11.566;2023-04-25T06:37:21;3.78;;;2.20;;
63201;SDS011;49296;48.188;11.566;2023-04-25T06:39:48;4.60;;;2.50;;
63201;SDS011;49296;48.188;11.566;2023-04-25T06:42:15;4.70;;;2.17;;
63201;SDS011;49296;48.188;11.566;2023-04-25T06:44:42;5.80;;;2.30;;
63201;SDS011;49296;48.188;11.566;2023-04-25T06:47:09;6.55;;;2.40;;
63201;SDS011;49296;48.188;11.566;2023-04-25T06:49:37;5.10;;;2.67;;
63201;SDS011;49296;48.188;11.566;2023-04-25T06:52:04;5.85;;;2.40;;
63201;SDS011;49296;48.188;11.566;2023-04-25T06:54:30;6.85;;;3.00;;
63201;SDS011;49296;48.188;11.566;2023-04-25T06:56:57;5.43;;;2.85;;
63201;SDS011;49296;48.188;11.566;2023-04-25T06:59:25;6.03;;;2.78;;
63201;SDS011;49296;48.188;11.566;2023-04-25T07:01:52;5.13;;;2.83;;
63201;SDS011;49296;48.188;11.566;2023-04-25T07:04:19;5.93;;;2.88;;
63201;SDS011;49296;48.188;11.566;2023-04-25T07:06:47;8.10;;;3.63;;
63201;SDS011;49296;48.188;11.566;2023-04-25T07:09:14;6.47;;;2.90;;
63201;SDS011;49296;48.188;11.566;2023-04-25T07:11:41;5.65;;;3.08;;
63201;SDS011;49296;48.188;11.566;2023-04-25T07:14:08;5.15;;;3.28;;
63201;SDS011;49296;48.188;11.566;2023-04-25T07:16:35;5.18;;;2.88;;
63201;SDS011;49296;48.188;11.566;2023-04-25T07:19:02;5.35;;;2.80;;
63201;SDS011;49296;48.188;11.566;2023-04-25T07:21:28;5.53;;;3.03;;
63201;SDS011;49296;48.188;11.566;2023-04-25T07:23:59;6.75;;;3.63;;
63201;SDS011;49296;48.188;11.566;2023-04-25T07:26:25;5.97;;;2.65;;
63201;SDS011;49296;48.188;11.566;2023-04-25T07:28:52;5.40;;;2.75;;
63201;SDS011;49296;48.188;11.566;2023-04-25T07:31:19;5.28;;;2.85;;
63201;SDS011;49296;48.188;11.566;2023-04-25T07:33:46;5.15;;;2.45;;
63201;SDS011;49296;48.188;11.566;2023-04-25T07:36:13;5.10;;;2.40;;
63201;SDS011;49296;48.188;11.566;2023-04-25T07:38:40;5.85;;;2.50;;
63201;SDS011;49296;48.188;11.566;2023-04-25T07:41:08;5.95;;;2.50;;
63201;SDS011;49296;48.188;11.566;2023-04-25T07:43:35;6.15;;;2.42;;
63201;SDS011;49296;48.188;11.566;2023-04-25T07:46:02;4.80;;;2.30;;
63201;SDS011;49296;48.188;11.566;2023-04-25T07:48:28;5.05;;;2.85;;
63201;SDS011;49296;48.188;11.566;2023-04-25T07:50:55;7.10;;;2.67;;
63201;SDS011;49296;48.188;11.566;2023-04-25T07:53:22;5.97;;;3.80;;
63201;SDS011;49296;48.188;11.566;2023-04-25T07:55:49;5.75;;;2.75;;
63201;SDS011;49296;48.188;11.566;2023-04-25T07:58:17;6.97;;;3.00;;
63201;SDS011;49296;48.188;11.566;2023-04-25T08:00:46;7.32;;;3.45;;
63201;SDS011;49296;48.188;11.566;2023-04-25T08:03:13;7.47;;;3.60;;
63201;SDS011;49296;48.188;11.566;2023-04-25T08:05:40;36.80;;;6.40;;
63201;SDS011;49296;48.188;11.566;2023-04-25T08:08:09;14.38;;;5.28;;
63201;SDS011;49296;48.188;11.566;2023-04-25T08:10:36;12.13;;;4.20;;
63201;SDS011;49296;48.188;11.566;2023-04-25T08:13:03;12.30;;;4.30;;
63201;SDS011;49296;48.188;11.566;2023-04-25T08:15:31;8.15;;;3.35;;
63201;SDS011;49296;48.188;11.566;2023-04-25T08:17:58;7.18;;;3.75;;
63201;SDS011;49296;48.188;11.566;2023-04-25T08:20:26;6.40;;;3.30;;
63201;SDS011;49296;48.188;11.566;2023-04-25T08:22:53;5.88;;;3.38;;
63201;SDS011;49296;48.188;11.566;2023-04-25T08:25:20;5.80;;;2.83;;
63201;SDS011;49296;48.188;11.566;2023-04-25T08:27:47;6.85;;;3.35;;
63201;SDS011;49296;48.188;11.566;2023-04-25T08:30:13;10.70;;;3.78;;
63201;SDS011;49296;48.188;11.566;2023-04-25T08:32:42;5.28;;;3.03;;
63201;SDS011;49296;48.188;11.566;2023-04-25T08:35:09;4.25;;;2.60;;
63201;SDS011;49296;48.188;11.566;2023-04-25T08:37:36;6.70;;;3.13;;
63201;SDS011;49296;48.188;11.566;2023-04-25T08:40:03;5.25;;;2.33;;
63201;SDS011;49296;48.188;11.566;2023-04-25T08:42:32;3.50;;;2.08;;
63201;SDS011;49296;48.188;11.566;2023-04-25T08:45:00;5.05;;;2.63;;
63201;SDS011;49296;48.188;11.566;2023-04-25T08:47:28;4.50;;;2.15;;
63201;SDS011;49296;48.188;11.566;2023-04-25T08:50:00;5.05;;;2.20;;
63201;SDS011;49296;48.188;11.566;2023-04-25T08:52:30;5.82;;;2.33;;
63201;SDS011;49296;48.188;11.566;2023-04-25T08:55:02;5.43;;;2.30;;
63201;SDS011;49296;48.188;11.566;2023-04-25T08:57:30;4.93;;;2.20;;
63201;SDS011;49296;48.188;11.566;2023-04-25T08:59:57;5.03;;;2.20;;
63201;SDS011;49296;48.188;11.566;2023-04-25T09:02:26;4.65;;;2.35;;
63201;SDS011;49296;48.188;11.566;2023-04-25T09:04:53;5.75;;;2.20;;
63201;SDS011;49296;48.188;11.566;2023-04-25T09:07:22;4.32;;;2.10;;
63201;SDS011;49296;48.188;11.566;2023-04-25T09:09:50;3.95;;;2.20;;
63201;SDS011;49296;48.188;11.566;2023-04-25T09:12:17;6.10;;;2.50;;
63201;SDS011;49296;48.188;11.566;2023-04-25T09:14:46;4.25;;;2.25;;
63201;SDS011;49296;48.188;11.566;2023-04-25T09:17:29;5.03;;;2.10;;
63201;SDS011;49296;48.188;11.566;2023-04-25T09:19:55;4.75;;;2.03;;
63201;SDS011;49296;48.188;11.566;2023-04-25T09:22:33;6.78;;;1.95;;
63201;SDS011;49296;48.188;11.566;2023-04-25T09:25:02;4.15;;;2.05;;
63201;SDS011;49296;48.188;11.566;2023-04-25T09:27:29;3.92;;;2.13;;
63201;SDS011;49296;48.188;11.566;2023-04-25T09:29:57;4.22;;;2.15;;
63201;SDS011;49296;48.188;11.566;2023-04-25T09:32:25;4.57;;;2.22;;
63201;SDS011;49296;48.188;11.566;2023-04-25T09:34:52;3.80;;;1.85;;
63201;SDS011;49296;48.188;11.566;2023-04-25T09:37:21;5.25;;;2.20;;
63201;SDS011;49296;48.188;11.566;2023-04-25T09:39:50;4.25;;;2.30;;
63201;SDS011;49296;48.188;11.566;2023-04-25T09:42:21;4.18;;;2.22;;
63201;SDS011;49296;48.188;11.566;2023-04-25T09:44:51;4.22;;;2.25;;
63201;SDS011;49296;48.188;11.566;2023-04-25T09:47:18;4.25;;;2.00;;
63201;SDS011;49296;48.188;11.566;2023-04-25T09:49:47;4.10;;;2.45;;
63201;SDS011;49296;48.188;11.566;2023-04-25T09:52:14;3.63;;;2.00;;
63201;SDS011;49296;48.188;11.566;2023-04-25T09:54:43;4.75;;;2.20;;
63201;SDS011;49296;48.188;11.566;2023-04-25T09:57:12;4.38;;;2.28;;
63201;SDS011;49296;48.188;11.566;2023-04-25T09:59:42;4.50;;;2.20;;
63201;SDS011;49296;48.188;11.566;2023-04-25T10:02:11;3.72;;;1.92;;
63201;SDS011;49296;48.188;11.566;2023-04-25T10:04:38;5.07;;;2.38;;
63201;SDS011;49296;48.188;11.566;2023-04-25T10:07:07;5.63;;;2.10;;
63201;SDS011;49296;48.188;11.566;2023-04-25T10:09:36;4.47;;;2.28;;
63201;SDS011;49296;48.188;11.566;2023-04-25T10:12:04;4.00;;;2.00;;
63201;SDS011;49296;48.188;11.566;2023-04-25T10:14:34;4.78;;;2.28;;
63201;SDS011;49296;48.188;11.566;2023-04-25T10:17:01;5.70;;;2.50;;
63201;SDS011;49296;48.188;11.566;2023-04-25T10:19:28;4.35;;;1.88;;
63201;SDS011;49296;48.188;11.566;2023-04-25T10:21:58;3.90;;;2.17;;
63201;SDS011;49296;48.188;11.566;2023-04-25T10:24:33;4.20;;;2.03;;
63201;SDS011;49296;48.188;11.566;2023-04-25T10:27:02;4.78;;;2.00;;
63201;SDS011;49296;48.188;11.566;2023-04-25T10:29:29;5.43;;;1.70;;
63201;SDS011;49296;48.188;11.566;2023-04-25T10:31:57;4.82;;;1.88;;
63201;SDS011;49296;48.188;11.566;2023-04-25T10:34:24;3.78;;;2.03;;
63201;SDS011;49296;48.188;11.566;2023-04-25T10:37:04;6.28;;;2.45;;
63201;SDS011;49296;48.188;11.566;2023-04-25T10:39:34;5.60;;;2.00;;
63201;SDS011;49296;48.188;11.566;2023-04-25T10:42:01;4.65;;;2.00;;
63201;SDS011;49296;48.188;11.566;2023-04-25T10:44:29;4.82;;;2.50;;
63201;SDS011;49296;48.188;11.566;2023-04-25T10:46:58;4.45;;;2.08;;
63201;SDS011;49296;48.188;11.566;2023-04-25T10:49:33;4.10;;;1.88;;
63201;SDS011;49296;48.188;11.566;2023-04-25T10:52:24;4.35;;;1.92;;
63201;SDS011;49296;48.188;11.566;2023-04-25T10:54:52;3.72;;;1.90;;
63201;SDS011;49296;48.188;11.566;2023-04-25T10:57:26;4.60;;;2.08;;
63201;SDS011;49296;48.188;11.566;2023-04-25T10:59:57;6.95;;;2.00;;
63201;SDS011;49296;48.188;11.566;2023-04-25T11:02:27;3.80;;;2.08;;
63201;SDS011;49296;48.188;11.566;2023-04-25T11:04:54;4.43;;;2.25;;
63201;SDS011;49296;48.188;11.566;2023-04-25T11:07:23;4.38;;;1.95;;
63201;SDS011;49296;48.188;11.566;2023-04-25T11:10:01;3.40;;;1.80;;
63201;SDS011;49296;48.188;11.566;2023-04-25T11:12:29;5.32;;;2.45;;
63201;SDS011;49296;48.188;11.566;2023-04-25T11:15:04;3.72;;;2.08;;
63201;SDS011;49296;48.188;11.566;2023-04-25T11:17:34;4.15;;;2.00;;
63201;SDS011;49296;48.188;11.566;2023-04-25T11:20:01;4.88;;;2.03;;
63201;SDS011;49296;48.188;11.566;2023-04-25T11:22:32;6.38;;;2.00;;
63201;SDS011;49296;48.188;11.566;2023-04-25T11:25:04;4.32;;;1.70;;
63201;SDS011;49296;48.188;11.566;2023-04-25T11:27:32;6.88;;;1.70;;
63201;SDS011;49296;48.188;11.566;2023-04-25T11:30:09;4.20;;;2.10;;
63201;SDS011;49296;48.188;11.566;2023-04-25T11:32:40;4.07;;;1.75;;
63201;SDS011;49296;48.188;11.566;2023-04-25T11:35:08;4.90;;;2.20;;
63201;SDS011;49296;48.188;11.566;2023-04-25T11:37:35;3.97;;;1.70;;
63201;SDS011;49296;48.188;11.566;2023-04-25T11:40:03;3.53;;;1.85;;
63201;SDS011;49296;48.188;11.566;2023-04-25T11:42:34;4.57;;;1.95;;
63201;SDS011;49296;48.188;11.566;2023-04-25T11:45:03;6.40;;;3.03;;
63201;SDS011;49296;48.188;11.566;2023-04-25T11:47:32;4.82;;;1.98;;
63201;SDS011;49296;48.188;11.566;2023-04-25T11:50:01;5.88;;;3.28;;
63201;SDS011;49296;48.188;11.566;2023-04-25T11:52:38;5.18;;;2.30;;
63201;SDS011;49296;48.188;11.566;2023-04-25T11:55:09;5.97;;;2.10;;
63201;SDS011;49296;48.188;11.566;2023-04-25T11:57:38;8.85;;;2.42;;
63201;SDS011;49296;48.188;11.566;2023-04-25T12:00:08;5.90;;;2.33;;
63201;SDS011;49296;48.188;11.566;2023-04-25T12:02:37;5.03;;;2.55;;
63201;SDS011;49296;48.188;11.566;2023-04-25T12:05:08;2.97;;;1.40;;
63201;SDS011;49296;48.188;11.566;2023-04-25T12:07:35;3.15;;;1.50;;
63201;SDS011;49296;48.188;11.566;2023-04-25T12:10:06;10.68;;;4.28;;
63201;SDS011;49296;48.188;11.566;2023-04-25T12:12:34;4.13;;;2.05;;
63201;SDS011;49296;48.188;11.566;2023-04-25T12:15:11;2.85;;;1.55;;
63201;SDS011;49296;48.188;11.566;2023-04-25T12:17:41;3.60;;;2.00;;
63201;SDS011;49296;48.188;11.566;2023-04-25T12:20:11;4.22;;;1.58;;
63201;SDS011;49296;48.188;11.566;2023-04-25T12:22:40;3.05;;;1.45;;
63201;SDS011;49296;48.188;11.566;2023-04-25T12:25:10;3.08;;;1.42;;
63201;SDS011;49296;48.188;11.566;2023-04-25T12:27:37;5.20;;;1.70;;
63201;SDS011;49296;48.188;11.566;2023-04-25T12:30:05;2.65;;;1.30;;
63201;SDS011;49296;48.188;11.566;2023-04-25T12:32:33;3.42;;;1.40;;
63201;SDS011;49296;48.188;11.566;2023-04-25T12:35:00;2.75;;;1.45;;
63201;SDS011;49296;48.188;11.566;2023-04-25T12:37:29;3.45;;;1.48;;
63201;SDS011;49296;48.188;11.566;2023-04-25T12:39:56;3.00;;;1.38;;
63201;SDS011;49296;48.188;11.566;2023-04-25T12:42:23;3.63;;;1.67;;
63201;SDS011;49296;48.188;11.566;2023-04-25T12:44:50;3.72;;;1.52;;
63201;SDS011;49296;48.188;11.566;2023-04-25T12:47:17;5.00;;;1.88;;
63201;SDS011;49296;48.188;11.566;2023-04-25T12:49:43;3.88;;;1.52;;
63201;SDS011;49296;48.188;11.566;2023-04-25T12:52:10;4.10;;;1.65;;
63201;SDS011;49296;48.188;11.566;2023-04-25T12:54:38;3.10;;;1.77;;
63201;SDS011;49296;48.188;11.566;2023-04-25T12:57:05;3.20;;;1.70;;
63201;SDS011;49296;48.188;11.566;2023-04-25T12:59:32;5.00;;;2.00;;
63201;SDS011;49296;48.188;11.566;2023-04-25T13:01:59;3.45;;;1.65;;
63201;SDS011;49296;48.188;11.566;2023-04-25T13:04:26;4.15;;;2.00;;
63201;SDS011;49296;48.188;11.566;2023-04-25T13:06:54;3.05;;;1.50;;
63201;SDS011;49296;48.188;11.566;2023-04-25T13:09:21;3.17;;;1.50;;
63201;SDS011;49296;48.188;11.566;2023-04-25T13:11:49;2.20;;;1.20;;
63201;SDS011;49296;48.188;11.566;2023-04-25T13:14:16;3.65;;;1.30;;
63201;SDS011;49296;48.188;11.566;2023-04-25T13:16:43;3.17;;;1.45;;
63201;SDS011;49296;48.188;11.566;2023-04-25T13:19:10;2.33;;;1.30;;
63201;SDS011;49296;48.188;11.566;2023-04-25T13:21:37;3.72;;;1.63;;
63201;SDS011;49296;48.188;11.566;2023-04-25T13:24:04;3.78;;;1.75;;
63201;SDS011;49296;48.188;11.566;2023-04-25T13:26:31;2.38;;;1.35;;
63201;SDS011;49296;48.188;11.566;2023-04-25T13:29:00;4.95;;;1.67;;
63201;SDS011;49296;48.188;11.566;2023-04-25T13:31:28;3.45;;;1.63;;
63201;SDS011;49296;48.188;11.566;2023-04-25T13:33:55;3.22;;;1.50;;
63201;SDS011;49296;48.188;11.566;2023-04-25T13:36:22;3.25;;;1.77;;
63201;SDS011;49296;48.188;11.566;2023-04-25T13:38:49;3.15;;;1.23;;
63201;SDS011;49296;48.188;11.566;2023-04-25T13:41:16;2.00;;;1.10;;
63201;SDS011;49296;48.188;11.566;2023-04-25T13:43:44;2.97;;;1.20;;
63201;SDS011;49296;48.188;11.566;2023-04-25T13:46:13;2.58;;;1.10;;
63201;SDS011;49296;48.188;11.566;2023-04-25T13:48:41;2.10;;;1.00;;
63201;SDS011;49296;48.188;11.566;2023-04-25T13:51:13;2.50;;;0.93;;
63201;SDS011;49296;48.188;11.566;2023-04-25T13:53:41;5.20;;;1.77;;
63201;SDS011;49296;48.188;11.566;2023-04-25T13:56:07;2.10;;;0.90;;
63201;SDS011;49296;48.188;11.566;2023-04-25T13:58:35;5.18;;;1.38;;
63201;SDS011;49296;48.188;11.566;2023-04-25T14:01:02;3.35;;;1.50;;
63201;SDS011;49296;48.188;11.566;2023-04-25T14:03:31;3.08;;;1.40;;
63201;SDS011;49296;48.188;11.566;2023-04-25T14:05:58;6.78;;;2.60;;
63201;SDS011;49296;48.188;11.566;2023-04-25T14:08:25;2.92;;;1.50;;
63201;SDS011;49296;48.188;11.566;2023-04-25T14:10:53;4.72;;;1.77;;
63201;SDS011;49296;48.188;11.566;2023-04-25T14:13:20;3.75;;;1.65;;
63201;SDS011;49296;48.188;11.566;2023-04-25T14:15:48;3.85;;;1.63;;
63201;SDS011;49296;48.188;11.566;2023-04-25T14:18:15;4.03;;;1.77;;
63201;SDS011;49296;48.188;11.566;2023-04-25T14:20:43;5.32;;;2.33;;
63201;SDS011;49296;48.188;11.566;2023-04-25T14:23:10;5.72;;;2.25;;
63201;SDS011;49296;48.188;11.566;2023-04-25T14:25:37;4.60;;;1.80;;
63201;SDS011;49296;48.188;11.566;2023-04-25T14:28:04;4.15;;;1.80;;
63201;SDS011;49296;48.188;11.566;2023-04-25T14:30:31;4.13;;;1.90;;
63201;SDS011;49296;48.188;11.566;2023-04-25T14:32:58;3.53;;;1.70;;
63201;SDS011;49296;48.188;11.566;2023-04-25T14:35:25;3.22;;;1.58;;
63201;SDS011;49296;48.188;11.566;2023-04-25T14:37:53;3.97;;;2.17;;